Terminal Aerodrome Forecast
Issued by NWS Denver/Boulder, CO

Home | Current Version | Previous Version | Text Only | Print | Product List | Glossary On
Versions: 1 2 3 4 5 6 7 8 9 10 11 12 13 14 15 16 17 18 19 20 21 22 23 24 25 26 27 28 29 30 31 32 33 34 35 36 37 38 39 40 41 42 43 44 45 46 47 48 49 50
000
FTUS45 KBOU 040023 AAA
TAFDEN
TAF AMD
KDEN 040023Z 0400/0506 02015G24KT P6SM VCTS BKN070CB BKN110
     FM040200 04013KT P6SM VCSH BKN060 BKN080
      TEMPO 0403/0406 -SHRA BKN050
     FM040600 28008KT 6SM -SHRA BR BKN035 OVC050
      TEMPO 0408/0411 3SM -RA BR BKN025
     FM041100 02006KT 2SM -RA BR BKN012 OVC020
     FM041600 06007KT 5SM BR VCSH BKN015 OVC030
     FM042000 10007KT P6SM VCTS BKN035 BKN050CB
      TEMPO 0421/0501 3SM -TSRA BKN020CB
     FM050100 11008KT 5SM -RA BR BKN030 OVC040=

USA.gov is the U.S. government's official web portal to all federal, state and local government web resources and services.